createdAt,value
2019-05-26T00:02:11.258Z,47.39
2019-05-26T00:04:46.312Z,48.59
2019-05-26T00:07:30.319Z,49.24
2019-05-26T00:09:57.982Z,49.65
2019-05-26T00:12:33.053Z,51.24
2019-05-26T00:15:07.334Z,51.77
2019-05-26T00:17:43.036Z,56.78
2019-05-26T00:20:18.836Z,57.98
2019-05-26T00:22:52.436Z,62.86
2019-05-26T00:25:26.127Z,67.35
2019-05-26T00:28:01.125Z,70.91
2019-05-26T00:30:34.753Z,76.42
2019-05-26T00:33:09.402Z,77.40
2019-05-26T00:35:44.820Z,80.35
2019-05-26T00:38:18.615Z,82.56
2019-05-26T00:40:52.397Z,83.83
2019-05-26T00:43:27.631Z,82.95
2019-05-26T00:46:02.794Z,83.83
2019-05-26T00:48:36.432Z,84.84
2019-05-26T00:51:10.402Z,86.40
2019-05-26T00:53:44.146Z,87.46
2019-05-26T00:56:19.193Z,87.87
2019-05-26T00:58:53.107Z,87.54
2019-05-26T01:01:28.658Z,87.16
2019-05-26T01:04:03.623Z,87.43
2019-05-26T01:06:38.979Z,86.25
2019-05-26T01:09:14.627Z,84.90
2019-05-26T01:11:48.071Z,88.00
2019-05-26T01:14:21.760Z,87.24
2019-05-26T01:16:56.601Z,86.55
2019-05-26T01:19:31.681Z,88.41
2019-05-26T01:22:05.280Z,88.01
2019-05-26T01:24:40.734Z,89.26
2019-05-26T01:27:14.634Z,90.01
2019-05-26T01:29:49.365Z,89.99
2019-05-26T01:32:23.313Z,88.62
2019-05-26T01:34:56.960Z,89.52
2019-05-26T01:37:32.335Z,89.94
2019-05-26T01:40:08.179Z,91.91
2019-05-26T01:42:43.442Z,90.73
2019-05-26T01:45:16.926Z,89.24
2019-05-26T01:47:50.886Z,89.32
2019-05-26T01:50:24.568Z,89.42
2019-05-26T01:52:58.226Z,88.29
2019-05-26T01:55:33.448Z,90.55
2019-05-26T01:58:07.743Z,89.45
2019-05-26T02:00:41.375Z,89.49
2019-05-26T02:03:16.651Z,90.61
2019-05-26T02:05:51.727Z,91.21
2019-05-26T02:08:38.752Z,89.67
2019-05-26T02:11:01.816Z,91.16
2019-05-26T02:13:52.326Z,90.95
2019-05-26T02:19:03.289Z,90.64
2019-05-26T02:21:38.725Z,91.18
2019-05-26T02:24:33.931Z,91.31
2019-05-26T02:27:09.268Z,91.34
2019-05-26T02:29:44.229Z,90.90
2019-05-26T02:32:18.205Z,89.87
2019-05-26T02:34:52.041Z,89.88
2019-05-26T02:37:25.540Z,90.30
2019-05-26T02:40:00.599Z,88.66
2019-05-26T02:42:35.748Z,90.57
2019-05-26T02:45:17.491Z,89.95
2019-05-26T02:47:51.154Z,88.49
2019-05-26T02:50:26.705Z,90.89
2019-05-26T02:53:00.744Z,91.74
2019-05-26T02:55:34.564Z,91.05
2019-05-26T02:58:10.269Z,91.83
2019-05-26T03:00:49.348Z,90.57
2019-05-26T03:03:23.100Z,92.68
2019-05-26T03:05:59.459Z,92.44
2019-05-26T03:08:34.784Z,91.92
2019-05-26T03:11:10.045Z,91.93
2019-05-26T03:13:46.971Z,91.51
2019-05-26T03:16:24.306Z,89.05
2019-05-26T03:19:00.626Z,90.10
2019-05-26T03:21:36.281Z,91.41
2019-05-26T03:24:12.373Z,92.65
2019-05-26T03:26:46.150Z,91.41
2019-05-26T03:29:19.609Z,92.09
2019-05-26T03:31:53.408Z,91.45
2019-05-26T03:34:27.240Z,89.80
2019-05-26T03:37:03.007Z,88.60
2019-05-26T03:39:44.762Z,88.79
2019-05-26T03:42:11.633Z,88.38
2019-05-26T03:44:47.294Z,88.69
2019-05-26T03:47:22.500Z,86.68
2019-05-26T03:49:57.508Z,85.99
2019-05-26T03:52:31.174Z,86.89
2019-05-26T03:55:05.150Z,86.85
2019-05-26T03:57:38.708Z,88.00
2019-05-26T04:00:13.069Z,86.86
2019-05-26T04:02:46.673Z,85.20
2019-05-26T04:05:21.633Z,86.73
2019-05-26T04:07:55.202Z,87.27
2019-05-26T04:10:30.940Z,89.53
2019-05-26T04:13:04.729Z,86.60
2019-05-26T04:15:38.388Z,88.49
2019-05-26T04:18:13.501Z,89.88
2019-05-26T04:20:48.085Z,88.08
2019-05-26T04:23:23.320Z,87.27
2019-05-26T04:25:58.511Z,89.15
2019-05-26T04:28:33.615Z,86.86
2019-05-26T04:31:07.455Z,86.93
2019-05-26T04:33:42.308Z,88.81
2019-05-26T04:36:16.190Z,90.14
2019-05-26T04:38:50.025Z,90.40
2019-05-26T04:41:23.795Z,90.88
2019-05-26T04:43:57.804Z,91.45
2019-05-26T04:46:31.199Z,90.78
2019-05-26T04:49:05.068Z,91.00
2019-05-26T04:51:38.711Z,89.11
2019-05-26T04:54:13.766Z,88.82
2019-05-26T04:56:47.571Z,89.64
2019-05-26T04:59:22.789Z,90.71
2019-05-26T05:01:57.630Z,91.21
2019-05-26T05:04:31.476Z,92.07
2019-05-26T05:07:06.760Z,91.08
2019-05-26T05:09:40.239Z,92.25
2019-05-26T05:12:13.981Z,93.44
2019-05-26T05:14:48.902Z,93.37
2019-05-26T05:17:22.646Z,93.99
2019-05-26T05:19:56.229Z,93.72
2019-05-26T05:22:31.544Z,93.93
2019-05-26T05:25:14.167Z,93.25
2019-05-26T05:27:42.785Z,93.84
2019-05-26T05:30:16.580Z,92.79
2019-05-26T05:32:52.266Z,93.20
2019-05-26T05:35:27.420Z,92.47
2019-05-26T05:38:01.250Z,92.06
2019-05-26T05:40:35.312Z,92.77
2019-05-26T05:43:10.686Z,93.92
2019-05-26T05:45:46.511Z,93.71
2019-05-26T05:48:19.988Z,94.91
2019-05-26T05:50:53.702Z,94.03
2019-05-26T05:53:34.753Z,93.31
2019-05-26T05:56:10.698Z,93.90
2019-05-26T05:58:45.889Z,94.23
2019-05-26T06:01:21.566Z,92.74
2019-05-26T06:03:56.690Z,93.05
2019-05-26T06:06:30.697Z,93.44
2019-05-26T06:09:08.209Z,92.72
2019-05-26T06:14:19.914Z,93.02
2019-05-26T06:16:55.041Z,94.79
2019-05-26T06:19:28.590Z,94.15
2019-05-26T06:22:03.675Z,92.88
2019-05-26T06:24:38.945Z,93.71
2019-05-26T06:27:12.508Z,92.93
2019-05-26T06:29:58.406Z,93.23
2019-05-26T06:32:21.298Z,94.44
2019-05-26T06:34:56.780Z,94.29
2019-05-26T06:37:30.530Z,95.17
2019-05-26T06:40:04.107Z,95.11
2019-05-26T06:42:37.808Z,94.38
2019-05-26T06:45:11.929Z,94.41
2019-05-26T06:47:45.328Z,94.62
2019-05-26T06:50:20.557Z,94.45
2019-05-26T06:52:56.029Z,94.46
2019-05-26T06:55:29.642Z,94.67
2019-05-26T06:58:03.389Z,94.28
2019-05-26T07:00:37.616Z,94.49
2019-05-26T07:03:13.289Z,94.25
2019-05-26T07:05:47.049Z,94.10
2019-05-26T07:08:22.105Z,94.87
2019-05-26T07:10:55.884Z,94.80
2019-05-26T07:13:29.800Z,94.29
2019-05-26T07:16:03.950Z,94.23
2019-05-26T07:18:37.442Z,93.55
2019-05-26T07:21:11.005Z,93.53
2019-05-26T07:23:44.454Z,94.44
2019-05-26T07:26:18.152Z,93.87
2019-05-26T07:28:53.019Z,94.23
2019-05-26T07:31:29.106Z,94.04
2019-05-26T07:34:04.494Z,94.28
2019-05-26T07:36:38.486Z,95.21
2019-05-26T07:39:12.570Z,95.45
2019-05-26T07:41:47.628Z,94.06
2019-05-26T07:44:21.408Z,94.18
2019-05-26T07:46:54.951Z,93.69
2019-05-26T07:49:30.023Z,93.71
2019-05-26T07:52:03.854Z,93.32
2019-05-26T07:54:39.033Z,93.64
2019-05-26T07:57:14.367Z,93.99
2019-05-26T07:59:49.505Z,94.33
2019-05-26T08:02:23.482Z,93.65
2019-05-26T08:05:00.208Z,93.39
2019-05-26T08:07:33.959Z,93.79
2019-05-26T08:10:10.116Z,93.95
2019-05-26T08:12:45.380Z,93.50
2019-05-26T08:15:20.572Z,93.59
2019-05-26T08:17:57.431Z,93.55
2019-05-26T08:20:31.496Z,93.39
2019-05-26T08:23:09.715Z,92.74
2019-05-26T08:25:44.847Z,93.27
2019-05-26T08:28:20.035Z,93.48
2019-05-26T08:30:55.359Z,93.98
2019-05-26T08:33:29.471Z,94.11
2019-05-26T08:36:03.113Z,93.23
2019-05-26T08:38:38.507Z,93.71
2019-05-26T08:41:14.958Z,93.96
2019-05-26T08:43:48.915Z,93.68
2019-05-26T08:46:22.569Z,92.95
2019-05-26T08:48:56.329Z,94.00
2019-05-26T08:51:30.271Z,93.99
2019-05-26T08:54:05.328Z,93.81
2019-05-26T08:56:40.595Z,93.43
2019-05-26T08:59:15.704Z,93.72
2019-05-26T09:01:50.940Z,94.78
2019-05-26T09:04:24.658Z,95.77
2019-05-26T09:06:58.306Z,95.66
2019-05-26T09:09:33.982Z,95.64
2019-05-26T09:12:07.684Z,95.41
2019-05-26T09:14:41.438Z,96.40
2019-05-26T09:17:17.037Z,96.62
2019-05-26T09:19:50.822Z,97.20
2019-05-26T09:22:25.034Z,95.79
2019-05-26T09:24:59.239Z,96.07
2019-05-26T09:27:34.574Z,96.06
2019-05-26T09:30:09.780Z,94.77
2019-05-26T09:32:43.537Z,95.71
2019-05-26T09:35:20.000Z,97.11
2019-05-26T09:37:53.770Z,96.15
2019-05-26T09:40:29.315Z,95.78
2019-05-26T09:43:15.705Z,97.34
2019-05-26T09:45:39.367Z,96.11
2019-05-26T09:48:13.831Z,96.27
2019-05-26T09:50:49.151Z,96.40
2019-05-26T09:53:24.234Z,96.53
2019-05-26T09:55:58.005Z,95.93
2019-05-26T09:58:31.896Z,96.29
2019-05-26T10:01:05.747Z,96.56
2019-05-26T10:03:39.613Z,96.22
2019-05-26T10:06:13.412Z,96.14
2019-05-26T10:08:47.379Z,95.73
2019-05-26T10:11:20.960Z,96.10
2019-05-26T10:13:54.741Z,97.49
2019-05-26T10:16:28.739Z,98.45
2019-05-26T10:19:02.437Z,98.03
2019-05-26T10:21:36.164Z,98.00
2019-05-26T10:24:12.919Z,97.68
2019-05-26T10:26:45.165Z,97.84
2019-05-26T10:29:19.274Z,97.91
2019-05-26T10:31:53.003Z,98.08
2019-05-26T10:34:28.488Z,98.36
2019-05-26T10:37:02.227Z,97.96
2019-05-26T10:39:38.594Z,97.99
2019-05-26T10:42:13.531Z,97.98
2019-05-26T10:44:46.990Z,97.27
2019-05-26T10:47:20.769Z,97.66
2019-05-26T10:49:56.746Z,97.46
2019-05-26T10:52:31.763Z,97.10
2019-05-26T10:55:06.865Z,98.16
2019-05-26T10:57:40.817Z,97.99
2019-05-26T11:00:14.775Z,98.10
2019-05-26T11:02:48.335Z,98.68
2019-05-26T11:05:22.327Z,98.35
2019-05-26T11:07:57.471Z,98.21
2019-05-26T11:10:31.248Z,96.69
2019-05-26T11:13:06.742Z,96.31
2019-05-26T11:15:40.636Z,96.33
2019-05-26T11:18:34.170Z,96.42
2019-05-26T11:21:08.199Z,97.60
2019-05-26T11:23:42.173Z,96.78
2019-05-26T11:26:15.621Z,96.70
2019-05-26T11:28:49.594Z,97.22
2019-05-26T11:31:23.909Z,97.31
2019-05-26T11:33:57.601Z,97.88
2019-05-26T11:36:32.608Z,98.42
2019-05-26T11:39:09.341Z,97.55
2019-05-26T11:41:54.661Z,97.38
2019-05-26T11:44:28.035Z,97.75
2019-05-26T11:47:01.040Z,97.86
2019-05-26T11:49:34.725Z,97.34
2019-05-26T11:52:10.106Z,97.69
2019-05-26T11:54:43.895Z,97.74
2019-05-26T11:57:18.080Z,97.93
2019-05-26T11:59:53.151Z,98.14
2019-05-26T12:02:27.483Z,98.30
2019-05-26T12:05:01.511Z,97.92
2019-05-26T12:07:39.485Z,97.84
2019-05-26T12:10:14.757Z,97.53
2019-05-26T12:12:48.655Z,97.89
2019-05-26T12:15:22.516Z,98.40
2019-05-26T12:17:56.382Z,98.55
2019-05-26T12:20:30.604Z,99.02
2019-05-26T12:23:06.855Z,99.32
2019-05-26T12:25:40.489Z,98.76
2019-05-26T12:28:14.484Z,98.34
2019-05-26T12:30:50.021Z,98.69
2019-05-26T12:33:23.861Z,99.13
2019-05-26T12:35:57.742Z,97.73
2019-05-26T12:38:31.615Z,97.26
2019-05-26T12:41:06.517Z,97.08
2019-05-26T12:43:40.386Z,97.88
2019-05-26T12:46:14.435Z,97.63
2019-05-26T12:48:49.879Z,97.27
2019-05-26T12:51:25.536Z,98.34
2019-05-26T12:54:01.037Z,97.81
2019-05-26T12:56:35.110Z,98.60
2019-05-26T12:59:09.152Z,98.91
2019-05-26T13:01:42.938Z,98.39
2019-05-26T13:04:16.556Z,98.75
2019-05-26T13:06:50.792Z,98.62
2019-05-26T13:09:25.493Z,98.85
2019-05-26T13:11:59.370Z,98.68
2019-05-26T13:14:32.948Z,99.10
2019-05-26T13:17:07.465Z,99.21
2019-05-26T13:19:43.067Z,98.80
2019-05-26T13:22:16.528Z,99.20
2019-05-26T13:24:52.597Z,99.52
2019-05-26T13:27:26.650Z,99.49
2019-05-26T13:30:02.988Z,99.92
2019-05-26T13:32:37.111Z,100.00
2019-05-26T13:35:13.121Z,99.31
2019-05-26T13:37:46.774Z,98.80
2019-05-26T13:40:22.596Z,98.69
2019-05-26T13:42:58.087Z,99.29
2019-05-26T13:45:33.892Z,99.24
2019-05-26T13:48:08.467Z,99.21
2019-05-26T13:50:43.714Z,99.76
2019-05-26T13:53:17.505Z,99.86
2019-05-26T13:55:51.368Z,100.00
2019-05-26T13:58:27.540Z,99.69
2019-05-26T14:01:01.402Z,99.51
2019-05-26T14:03:35.274Z,99.83
2019-05-26T14:06:10.805Z,100.00
2019-05-26T14:08:46.253Z,99.85
2019-05-26T14:11:20.097Z,100.00
2019-05-26T14:13:53.913Z,100.00
2019-05-26T14:16:31.642Z,100.00
2019-05-26T14:19:06.887Z,100.00
2019-05-26T14:21:41.866Z,100.00
2019-05-26T14:24:15.739Z,100.00
2019-05-26T14:26:49.535Z,99.55
2019-05-26T14:29:23.077Z,99.60
2019-05-26T14:31:57.450Z,100.00
2019-05-26T14:34:32.405Z,100.00
2019-05-26T14:37:05.986Z,100.00
2019-05-26T14:39:41.060Z,99.77
2019-05-26T14:42:15.737Z,100.00
2019-05-26T14:44:52.011Z,99.79
2019-05-26T14:47:25.899Z,98.78
2019-05-26T14:50:01.279Z,98.75
2019-05-26T14:52:35.024Z,98.53
2019-05-26T14:55:11.111Z,98.42
2019-05-26T14:57:45.202Z,98.61
2019-05-26T15:00:21.422Z,98.79
2019-05-26T15:02:56.450Z,98.95
2019-05-26T15:05:30.565Z,99.04
2019-05-26T15:08:04.170Z,98.66
2019-05-26T15:10:37.873Z,98.79
2019-05-26T15:13:11.845Z,98.69
2019-05-26T15:15:46.833Z,99.46
2019-05-26T15:18:21.999Z,98.32
2019-05-26T15:20:57.135Z,98.31
2019-05-26T15:23:32.125Z,99.20
2019-05-26T15:26:05.839Z,99.56
2019-05-26T15:28:39.489Z,99.56
2019-05-26T15:31:14.298Z,99.43
2019-05-26T15:33:48.491Z,99.48
2019-05-26T15:36:22.214Z,99.45
2019-05-26T15:38:57.084Z,99.23
2019-05-26T15:41:31.890Z,99.00
2019-05-26T15:44:07.516Z,99.18
2019-05-26T15:46:43.134Z,99.22
2019-05-26T15:49:18.174Z,98.66
2019-05-26T15:51:52.065Z,99.04
2019-05-26T15:54:26.106Z,98.97
2019-05-26T15:57:01.293Z,99.87
2019-05-26T15:59:36.506Z,99.32
2019-05-26T16:02:10.622Z,99.13
2019-05-26T16:04:45.860Z,98.48
2019-05-26T16:07:20.806Z,98.68
2019-05-26T16:09:54.747Z,98.17
2019-05-26T16:12:28.392Z,98.05
2019-05-26T16:15:01.878Z,98.66
2019-05-26T16:17:38.550Z,98.54
2019-05-26T16:20:13.413Z,98.68
2019-05-26T16:22:48.595Z,99.90
2019-05-26T16:25:22.627Z,99.74
2019-05-26T16:27:56.543Z,99.64
2019-05-26T16:30:31.694Z,99.18
2019-05-26T16:33:05.304Z,98.79
2019-05-26T16:35:40.503Z,98.80
2019-05-26T16:38:15.757Z,99.50
2019-05-26T16:40:51.140Z,99.31
2019-05-26T16:43:24.938Z,99.12
2019-05-26T16:45:59.852Z,99.07
2019-05-26T16:48:34.785Z,99.17
2019-05-26T16:51:10.435Z,99.68
2019-05-26T16:53:45.757Z,99.46
2019-05-26T16:56:21.556Z,98.60
2019-05-26T16:58:56.459Z,99.62
2019-05-26T17:01:32.113Z,99.69
2019-05-26T17:04:05.893Z,99.78
2019-05-26T17:06:41.464Z,99.73
2019-05-26T17:09:15.239Z,99.22
2019-05-26T17:11:50.565Z,99.53
2019-05-26T17:14:26.080Z,99.65
2019-05-26T17:17:13.571Z,99.88
2019-05-26T17:19:35.006Z,100.00
2019-05-26T17:22:10.589Z,98.89
2019-05-26T17:24:44.196Z,99.71
2019-05-26T17:27:19.710Z,99.69
2019-05-26T17:29:53.642Z,99.62
2019-05-26T17:32:27.594Z,99.72
2019-05-26T17:35:01.247Z,99.67
2019-05-26T17:37:36.326Z,99.86
2019-05-26T17:40:10.345Z,99.82
2019-05-26T17:42:44.344Z,99.46
2019-05-26T17:45:19.734Z,99.56
2019-05-26T17:47:53.324Z,99.57
2019-05-26T17:50:27.116Z,99.32
2019-05-26T17:53:02.050Z,99.40
2019-05-26T17:55:37.178Z,99.09
2019-05-26T17:58:12.735Z,98.46
2019-05-26T18:00:46.566Z,99.22
2019-05-26T18:03:22.022Z,99.01
2019-05-26T18:05:57.596Z,99.19
2019-05-26T18:08:36.244Z,98.95
2019-05-26T18:11:09.698Z,98.36
2019-05-26T18:14:02.885Z,98.38
2019-05-26T18:16:39.307Z,98.33
2019-05-26T18:19:14.420Z,98.51
2019-05-26T18:21:47.950Z,98.68
2019-05-26T18:24:23.237Z,99.04
2019-05-26T18:26:58.262Z,100.00
2019-05-26T18:29:31.857Z,99.16
2019-05-26T18:32:05.443Z,99.43
2019-05-26T18:34:40.529Z,99.33
2019-05-26T18:37:16.083Z,98.95
2019-05-26T18:39:51.339Z,98.53
2019-05-26T18:42:25.053Z,98.55
2019-05-26T18:44:59.819Z,98.82
2019-05-26T18:47:34.976Z,98.63
2019-05-26T18:50:10.662Z,98.56
2019-05-26T18:52:45.576Z,98.32
2019-05-26T18:55:19.436Z,98.44
2019-05-26T18:57:54.649Z,97.92
2019-05-26T19:00:30.868Z,98.10
2019-05-26T19:03:04.690Z,98.02
2019-05-26T19:05:39.606Z,97.72
2019-05-26T19:08:14.376Z,97.89
2019-05-26T19:10:47.948Z,97.82
2019-05-26T19:13:22.651Z,98.46
2019-05-26T19:15:56.055Z,98.87
2019-05-26T19:18:29.523Z,98.45
2019-05-26T19:21:03.037Z,97.92
2019-05-26T19:23:37.668Z,97.99
2019-05-26T19:26:12.811Z,98.16
2019-05-26T19:28:48.176Z,98.07
2019-05-26T19:31:23.225Z,98.07
2019-05-26T19:33:58.237Z,97.91
2019-05-26T19:36:33.693Z,97.87
2019-05-26T19:39:09.881Z,97.87
2019-05-26T19:41:44.696Z,98.01
2019-05-26T19:44:18.240Z,98.57
2019-05-26T19:46:52.983Z,98.91
2019-05-26T19:49:27.580Z,98.89
2019-05-26T19:52:02.596Z,98.57
2019-05-26T19:54:37.754Z,98.34
2019-05-26T19:57:13.174Z,98.10
2019-05-26T19:59:48.161Z,98.81
2019-05-26T20:02:42.518Z,99.20
2019-05-26T20:05:17.982Z,98.90
2019-05-26T20:07:52.832Z,98.89
2019-05-26T20:10:27.783Z,98.88
2019-05-26T20:13:02.830Z,98.00
2019-05-26T20:15:37.743Z,98.03
2019-05-26T20:18:11.345Z,97.85
2019-05-26T20:20:46.121Z,98.07
2019-05-26T20:23:19.770Z,98.49
2019-05-26T20:25:54.520Z,98.19
2019-05-26T20:28:47.578Z,97.75
2019-05-26T20:31:21.246Z,98.38
2019-05-26T20:33:54.915Z,98.52
2019-05-26T20:36:28.671Z,97.94
2019-05-26T20:39:06.111Z,97.90
2019-05-26T20:41:47.490Z,98.29
2019-05-26T20:44:24.649Z,98.57
2019-05-26T20:47:02.226Z,97.79
2019-05-26T20:49:45.264Z,97.62
2019-05-26T20:52:13.153Z,97.75
2019-05-26T20:54:46.628Z,98.57
2019-05-26T20:57:21.426Z,98.24
2019-05-26T20:59:56.653Z,97.81
2019-05-26T21:02:29.932Z,98.14
2019-05-26T21:05:04.737Z,98.04
2019-05-26T21:07:38.931Z,98.31
2019-05-26T21:10:14.868Z,98.85
2019-05-26T21:12:49.441Z,98.13
2019-05-26T21:15:24.420Z,98.72
2019-05-26T21:17:59.268Z,98.77
2019-05-26T21:20:33.158Z,98.23
2019-05-26T21:23:08.313Z,98.49
2019-05-26T21:25:43.107Z,98.93
2019-05-26T21:28:18.510Z,98.12
2019-05-26T21:30:53.322Z,98.46
2019-05-26T21:33:28.763Z,98.62
2019-05-26T21:36:03.523Z,98.90
2019-05-26T21:38:38.296Z,98.59
2019-05-26T21:41:11.920Z,98.79
2019-05-26T21:43:47.181Z,98.51
2019-05-26T21:46:22.529Z,98.54
2019-05-26T21:48:57.253Z,98.39
2019-05-26T21:51:31.223Z,98.58
2019-05-26T21:54:05.185Z,99.12
2019-05-26T21:56:40.032Z,99.03
2019-05-26T21:59:14.915Z,99.35
2019-05-26T22:01:48.698Z,99.26
2019-05-26T22:04:23.947Z,98.84
2019-05-26T22:06:58.832Z,99.04
2019-05-26T22:09:33.224Z,98.77
2019-05-26T22:12:14.215Z,98.59
2019-05-26T22:14:48.989Z,98.93
2019-05-26T22:17:22.476Z,98.71
2019-05-26T22:19:57.927Z,98.68
2019-05-26T22:22:31.411Z,98.61
2019-05-26T22:25:25.673Z,98.27
2019-05-26T22:28:00.132Z,98.05
2019-05-26T22:30:34.624Z,98.23
2019-05-26T22:33:08.377Z,98.21
2019-05-26T22:35:43.493Z,98.55
2019-05-26T22:38:18.119Z,98.17
2019-05-26T22:40:51.732Z,98.36
2019-05-26T22:43:28.341Z,98.48
2019-05-26T22:46:03.154Z,99.25
2019-05-26T22:48:38.189Z,98.39
2019-05-26T22:51:13.053Z,98.69
2019-05-26T22:53:46.810Z,98.58
2019-05-26T22:56:21.715Z,98.56
2019-05-26T22:58:56.862Z,97.67
2019-05-26T23:01:32.257Z,97.71
2019-05-26T23:04:07.730Z,98.00
2019-05-26T23:06:41.530Z,97.80
2019-05-26T23:09:16.663Z,98.20
2019-05-26T23:11:51.480Z,98.42
2019-05-26T23:14:26.341Z,98.22
2019-05-26T23:16:59.996Z,98.35
2019-05-26T23:19:35.215Z,98.24
2019-05-26T23:22:08.881Z,98.40
2019-05-26T23:24:42.586Z,98.42
2019-05-26T23:27:17.309Z,98.48
2019-05-26T23:29:52.435Z,98.03
2019-05-26T23:32:26.065Z,98.27
2019-05-26T23:35:01.287Z,98.45
2019-05-26T23:37:34.790Z,97.81
2019-05-26T23:40:12.638Z,97.99
2019-05-26T23:42:47.675Z,97.41
2019-05-26T23:45:22.751Z,97.33
2019-05-26T23:47:56.298Z,97.64
2019-05-26T23:50:29.863Z,97.37
2019-05-26T23:53:04.985Z,97.56
2019-05-26T23:55:40.479Z,96.84
2019-05-26T23:58:15.563Z,97.60
